Time;durP1;ratioP1;P1;durP2;ratioP2;P2;SDS_P1;SDS_P2;PMS_P1;PMS_P2;Temp;Humidity;BMP_temperature;BMP_pressure;BME280_temperature;BME280_humidity;BME280_pressure;Samples;Min_cycle;Max_cycle;Signal;HPM_P1;HPM_P2
2021/03/07 00:02:12;;;;;;;20.45;8.77;;;;;;;-2.98;70.79;99880.38;4879934;29;20025;-68
2021/03/07 00:04:37;;;;;;;16.70;9.20;;;;;;;-3.02;71.04;99880.13;4879932;29;20495;-68
2021/03/07 00:07:03;;;;;;;17.40;9.07;;;;;;;-3.01;71.11;99882.75;4879871;29;20029;-68
2021/03/07 00:09:28;;;;;;;18.80;9.80;;;;;;;-3.08;70.89;99882.34;4879850;29;20029;-68
2021/03/07 00:11:53;;;;;;;19.13;9.40;;;;;;;-3.08;71.19;99880.69;4879753;29;20040;-68
2021/03/07 00:14:18;;;;;;;16.63;9.63;;;;;;;-3.11;71.46;99875.44;4882946;29;20029;-69
2021/03/07 00:16:44;;;;;;;19.80;10.05;;;;;;;-3.13;71.59;99882.09;4887465;29;20036;-68
2021/03/07 00:19:09;;;;;;;17.85;10.02;;;;;;;-3.11;71.99;99872.91;4879819;29;20036;-68
2021/03/07 00:21:35;;;;;;;17.75;9.90;;;;;;;-3.09;71.73;99873.88;4879533;29;20029;-68
2021/03/07 00:24:00;;;;;;;16.52;9.20;;;;;;;-3.08;71.22;99870.56;4879576;29;20096;-68
2021/03/07 00:26:26;;;;;;;17.33;9.43;;;;;;;-3.05;71.46;99875.75;4879707;29;20124;-68
2021/03/07 00:28:51;;;;;;;17.85;9.30;;;;;;;-3.05;71.13;99875.75;4879690;29;20029;-68
2021/03/07 00:31:16;;;;;;;16.13;9.98;;;;;;;-3.18;71.42;99883.53;4879543;29;20033;-68
2021/03/07 00:33:42;;;;;;;23.83;10.27;;;;;;;-3.15;71.19;99881.13;4879487;29;20029;-68
2021/03/07 00:36:07;;;;;;;21.85;10.70;;;;;;;-3.22;71.45;99882.47;4878315;29;20478;-68
2021/03/07 00:38:32;;;;;;;14.20;8.13;;;;;;;-3.26;71.66;99879.69;4879607;29;20056;-68
2021/03/07 00:40:58;;;;;;;18.40;9.73;;;;;;;-3.19;71.48;99876.69;4879262;29;20497;-69
2021/03/07 00:43:24;;;;;;;19.20;9.20;;;;;;;-3.22;71.38;99876.53;4879380;29;20108;-69
2021/03/07 00:45:49;;;;;;;17.08;9.77;;;;;;;-3.19;71.48;99876.69;4888418;29;20041;-69
2021/03/07 00:48:14;;;;;;;15.27;9.02;;;;;;;-3.20;71.42;99873.28;4881064;29;20037;-69
2021/03/07 00:50:40;;;;;;;22.00;9.30;;;;;;;-3.27;71.65;99873.75;4893412;29;20032;-68
2021/03/07 00:53:05;;;;;;;16.02;9.45;;;;;;;-3.30;71.89;99867.63;4879130;29;20023;-68
2021/03/07 00:55:30;;;;;;;17.90;9.43;;;;;;;-3.29;72.03;99866.84;4879232;29;20121;-68
2021/03/07 00:57:56;;;;;;;17.08;9.82;;;;;;;-3.37;72.13;99862.25;4879199;29;20475;-69
2021/03/07 08:01:55;;;;;;;10.73;7.32;;;;;;;-1.09;65.16;99549.91;5451481;23;20048;-68
2021/03/07 08:04:26;;;;;;;12.15;7.10;;;;;;;-0.74;65.03;99547.88;4899012;29;20503;-68
2021/03/07 08:06:51;;;;;;;14.23;7.65;;;;;;;-0.65;65.26;99548.25;4898967;29;20111;-68
2021/03/07 08:09:40;;;;;;;11.38;8.30;;;;;;;-0.09;63.71;99541.91;4898102;29;20133;-68
2021/03/07 08:12:42;;;;;;;15.32;8.48;;;;;;;0.08;62.24;99545.91;4898620;29;20446;-68
2021/03/07 08:15:26;;;;;;;13.25;7.15;;;;;;;0.60;61.79;99537.53;4924636;23;20103;-73
2021/03/07 08:17:53;;;;;;;13.85;8.10;;;;;;;0.64;59.21;99538.50;4917542;29;20060;-73
2021/03/07 08:20:44;;;;;;;10.77;7.20;;;;;;;1.65;56.28;99522.16;4917391;29;20024;-73
2021/03/07 08:23:12;;;;;;;9.27;6.40;;;;;;;4.51;52.73;99499.91;4917418;29;20024;-73
2021/03/07 08:25:46;;;;;;;12.02;6.57;;;;;;;7.59;42.57;99491.53;4917335;29;20215;-73
2021/03/07 08:28:42;;;;;;;12.77;6.32;;;;;;;7.14;40.07;99504.13;4917452;29;20024;-73
2021/03/07 08:31:10;;;;;;;10.73;6.32;;;;;;;8.36;37.39;99492.69;4915788;29;20040;-73
2021/03/07 08:33:37;;;;;;;6.85;5.63;;;;;;;10.28;35.02;99486.44;4917281;29;20413;-68
2021/03/07 08:36:17;;;;;;;9.75;5.57;;;;;;;12.37;31.61;99475.78;4917138;29;20537;-68
2021/03/07 08:38:49;;;;;;;7.28;5.30;;;;;;;13.27;29.37;99471.81;4917260;29;20527;-68
2021/03/07 08:41:15;;;;;;;6.88;5.13;;;;;;;14.33;27.42;99467.09;4916888;29;20157;-68
2021/03/07 08:43:40;;;;;;;7.72;5.70;;;;;;;14.55;27.56;99468.38;4917007;29;20032;-68
2021/03/07 08:46:10;;;;;;;7.80;5.80;;;;;;;15.34;26.89;99469.91;4916832;29;20367;-68
2021/03/07 08:48:37;;;;;;;6.32;5.32;;;;;;;15.92;24.96;99469.19;4916964;29;20750;-68
2021/03/07 08:51:04;;;;;;;9.45;5.97;;;;;;;13.39;28.23;99483.72;4916776;29;20036;-67
2021/03/07 08:53:31;;;;;;;8.25;5.25;;;;;;;13.98;27.59;99471.31;4916796;29;20028;-68
2021/03/07 08:55:57;;;;;;;7.60;5.10;;;;;;;15.11;26.79;99468.72;4916833;29;20067;-68
2021/03/07 08:58:23;;;;;;;7.50;5.70;;;;;;;16.42;25.01;99458.13;4916860;29;20059;-68
2021/03/07 09:00:54;;;;;;;9.13;5.32;;;;;;;16.08;24.78;99459.16;4916586;29;20087;-68
2021/03/07 09:03:20;;;;;;;7.85;5.18;;;;;;;15.39;25.40;99470.66;4916670;29;20024;-68
2021/03/07 09:05:47;;;;;;;6.53;4.97;;;;;;;16.15;24.55;99454.59;4916545;29;20146;-68
2021/03/07 09:08:12;;;;;;;5.10;4.50;;;;;;;16.91;24.22;99456.59;4916657;29;20413;-68
2021/03/07 09:10:46;;;;;;;5.15;4.40;;;;;;;18.76;21.93;99447.25;4916585;29;20027;-68
2021/03/07 09:13:15;;;;;;;6.40;4.55;;;;;;;17.76;22.06;99452.81;4916582;29;20438;-68
2021/03/07 09:16:02;;;;;;;7.53;4.70;;;;;;;17.38;22.83;99454.16;4916130;29;20060;-68
2021/03/07 09:18:33;;;;;;;5.07;4.57;;;;;;;18.98;21.51;99436.69;4916466;29;20111;-68
2021/03/07 09:21:02;;;;;;;5.38;4.60;;;;;;;16.69;23.77;99445.94;4916151;29;20028;-68
2021/03/07 09:23:29;;;;;;;5.35;4.53;;;;;;;16.57;24.29;99436.72;4916454;29;20075;-68
2021/03/07 09:25:56;;;;;;;6.97;4.53;;;;;;;17.98;23.23;99427.50;4916229;29;20039;-68
2021/03/07 09:28:36;;;;;;;6.18;4.93;;;;;;;16.91;23.03;99441.75;4915090;29;20088;-68
2021/03/07 09:31:04;;;;;;;6.05;4.72;;;;;;;17.76;23.11;99431.84;4915990;29;20028;-68
2021/03/07 09:33:29;;;;;;;4.97;4.40;;;;;;;19.51;21.62;99415.16;4916120;29;20035;-68
2021/03/07 09:36:09;;;;;;;5.75;5.15;;;;;;;18.89;21.42;99421.31;4916088;29;20032;-68
2021/03/07 09:38:57;;;;;;;6.07;4.57;;;;;;;19.88;20.90;99413.53;4916286;29;20028;-68
2021/03/07 09:41:30;;;;;;;6.15;4.95;;;;;;;19.94;20.76;99408.00;4915867;29;20169;-68
2021/03/07 09:44:01;;;;;;;8.90;5.20;;;;;;;17.80;22.55;99416.88;4916051;29;20031;-69
2021/03/07 09:46:27;;;;;;;4.93;4.35;;;;;;;19.65;20.64;99411.94;4915909;29;20040;-69
2021/03/07 09:49:15;;;;;;;7.00;5.05;;;;;;;18.82;22.29;99409.38;4916118;29;20032;-68
2021/03/07 09:51:43;;;;;;;4.25;3.85;;;;;;;19.65;20.70;99397.03;4915689;29;20043;-68
2021/03/07 09:54:19;;;;;;;6.03;5.00;;;;;;;19.79;20.68;99403.44;4915979;29;20031;-68
2021/03/07 09:56:46;;;;;;;7.15;4.78;;;;;;;19.50;20.95;99402.94;4915904;29;20036;-69
2021/03/07 09:59:24;;;;;;;5.43;4.78;;;;;;;13.79;27.12;99429.16;4915927;29;20497;-68
2021/03/07 10:02:04;;;;;;;10.48;5.18;;;;;;;17.44;23.57;99409.38;4915701;29;20501;-69
2021/03/07 10:04:36;;;;;;;7.57;5.55;;;;;;;20.06;20.49;99388.13;4915995;29;20107;-73
2021/03/07 10:07:25;;;;;;;5.40;4.90;;;;;;;19.02;21.30;99395.41;4915822;29;20099;-68
2021/03/07 10:10:08;;;;;;;4.95;4.43;;;;;;;18.99;21.50;99388.50;4915910;29;20052;-69
2021/03/07 10:12:46;;;;;;;8.35;5.10;;;;;;;18.28;22.37;99387.91;4915398;29;20042;-68
2021/03/07 10:15:30;;;;;;;6.07;4.97;;;;;;;18.95;21.81;99389.53;4915469;29;20087;-75
2021/03/07 10:17:57;;;;;;;6.35;5.55;;;;;;;17.89;23.27;99379.78;4915645;29;20064;-75
2021/03/07 10:20:23;;;;;;;8.85;5.45;;;;;;;17.34;24.31;99389.66;4915692;29;20516;-75
2021/03/07 10:22:54;;;;;;;12.13;6.72;;;;;;;17.59;24.02;99387.84;4915518;29;20067;-75
2021/03/07 10:25:24;;;;;;;6.50;5.70;;;;;;;17.35;24.11;99386.13;4915529;29;20481;-74
2021/03/07 10:28:02;;;;;;;7.93;6.45;;;;;;;17.94;24.24;99367.38;4915604;29;20576;-75
2021/03/07 10:30:31;;;;;;;13.43;7.80;;;;;;;18.56;23.08;99365.78;4915710;29;20409;-75
2021/03/07 10:33:29;;;;;;;8.65;7.10;;;;;;;18.16;22.75;99368.25;4917938;29;20280;-75
2021/03/07 10:35:58;;;;;;;9.50;6.35;;;;;;;17.79;23.48;99370.56;4887688;29;20553;-75
2021/03/07 10:38:24;;;;;;;7.90;6.93;;;;;;;15.60;26.85;99376.00;4919290;29;20036;-69
2021/03/07 10:40:49;;;;;;;8.98;7.50;;;;;;;14.25;30.13;99375.16;4919101;29;20040;-68
2021/03/07 10:43:15;;;;;;;10.98;7.90;;;;;;;15.37;28.31;99370.56;4919186;29;20528;-69
2021/03/07 10:45:40;;;;;;;11.25;8.30;;;;;;;16.45;27.17;99364.72;4914132;29;20036;-69
2021/03/07 10:48:12;;;;;;;10.32;8.98;;;;;;;16.34;27.66;99369.47;4918502;29;20036;-69
2021/03/07 10:50:41;;;;;;;10.40;8.68;;;;;;;16.59;26.72;99377.38;4919090;29;20070;-69
2021/03/07 10:53:07;;;;;;;11.18;9.13;;;;;;;17.46;26.21;99360.41;4916052;29;20028;-69
2021/03/07 10:55:32;;;;;;;12.00;9.10;;;;;;;17.14;26.14;99359.81;4918273;29;20079;-69
2021/03/07 10:57:58;;;;;;;11.02;8.70;;;;;;;14.14;30.15;99363.25;4918487;29;20036;-69
2021/03/07 11:00:23;;;;;;;12.13;9.57;;;;;;;13.68;31.70;99365.13;4918586;29;20477;-69
2021/03/07 11:02:49;;;;;;;13.75;9.75;;;;;;;12.11;33.71;99369.66;4918524;29;20020;-69
2021/03/07 11:05:16;;;;;;;10.40;9.25;;;;;;;11.15;36.92;99374.28;4918003;29;20024;-69
2021/03/07 11:07:43;;;;;;;12.68;9.85;;;;;;;10.23;38.51;99376.81;4918285;29;20028;-69
2021/03/07 11:10:10;;;;;;;12.68;9.65;;;;;;;10.22;37.79;99375.09;4918439;29;20024;-69
2021/03/07 11:12:36;;;;;;;10.60;8.60;;;;;;;10.93;36.83;99371.06;4918214;29;20028;-69
2021/03/07 11:15:06;;;;;;;11.45;8.45;;;;;;;10.84;38.13;99368.56;4918230;29;20088;-69
2021/03/07 11:17:32;;;;;;;9.90;8.02;;;;;;;11.22;36.01;99370.78;4918106;29;20055;-69
2021/03/07 11:19:57;;;;;;;16.60;8.57;;;;;;;10.39;37.00;99370.66;4918039;29;20063;-69
2021/03/07 11:22:23;;;;;;;13.43;9.68;;;;;;;10.12;38.11;99376.88;4918089;29;20024;-69
2021/03/07 11:24:48;;;;;;;11.95;9.52;;;;;;;10.63;37.76;99369.59;4917753;29;20035;-69
2021/03/07 11:27:14;;;;;;;13.02;9.20;;;;;;;12.17;34.17;99358.31;4917623;29;20035;-69
2021/03/07 11:29:39;;;;;;;13.05;8.85;;;;;;;13.42;32.67;99352.66;4917529;29;20032;-69
2021/03/07 11:32:05;;;;;;;11.95;9.10;;;;;;;13.18;32.89;99348.78;4917799;29;20119;-69
2021/03/07 11:34:31;;;;;;;17.98;9.40;;;;;;;12.79;32.91;99351.22;4918095;29;20046;-69
2021/03/07 11:36:56;;;;;;;11.20;9.43;;;;;;;11.35;34.69;99350.72;4917729;29;20024;-69
2021/03/07 11:39:22;;;;;;;11.82;8.93;;;;;;;10.72;36.95;99347.94;4917756;29;20043;-69
2021/03/07 11:41:47;;;;;;;11.90;9.48;;;;;;;10.58;36.99;99344.63;4917471;29;20153;-69
2021/03/07 11:44:12;;;;;;;12.10;9.07;;;;;;;10.67;37.05;99341.94;4916540;29;20024;-69
2021/03/07 11:46:38;;;;;;;12.02;9.30;;;;;;;10.38;37.84;99340.47;4917737;29;20107;-73
2021/03/07 11:49:03;;;;;;;15.65;9.73;;;;;;;10.60;37.67;99337.69;4917894;29;20072;-74
2021/03/07 11:51:28;;;;;;;14.55;9.80;;;;;;;11.12;36.24;99331.97;4917652;29;20076;-74
2021/03/07 11:53:54;;;;;;;14.15;8.70;;;;;;;11.85;35.90;99331.09;4917646;29;20035;-74
2021/03/07 11:56:19;;;;;;;11.27;8.68;;;;;;;11.33;35.95;99327.41;4917651;29;20111;-74
2021/03/07 11:58:44;;;;;;;12.55;9.52;;;;;;;11.48;36.52;99315.97;4917614;29;20032;-74
2021/03/07 12:01:10;;;;;;;12.73;9.90;;;;;;;10.71;37.56;99305.63;4917558;29;20032;-74
2021/03/07 12:03:35;;;;;;;15.23;9.63;;;;;;;10.75;36.97;99311.63;4917552;29;20041;-74
2021/03/07 12:06:00;;;;;;;11.95;9.98;;;;;;;10.83;37.08;99315.00;4917768;29;20103;-74
2021/03/07 12:08:26;;;;;;;14.07;10.32;;;;;;;11.18;37.36;99300.78;4917470;29;20024;-74
2021/03/07 12:10:52;;;;;;;12.82;9.25;;;;;;;12.88;34.41;99291.25;4917385;29;20162;-73
2021/03/07 12:13:17;;;;;;;12.50;9.88;;;;;;;14.17;32.12;99281.53;4917278;29;20032;-75
2021/03/07 12:15:43;;;;;;;12.00;8.77;;;;;;;14.95;29.55;99269.09;4917182;29;20445;-73
2021/03/07 12:18:08;;;;;;;14.32;10.90;;;;;;;15.22;29.66;99272.66;4917193;29;20035;-73
2021/03/07 12:20:33;;;;;;;12.90;9.65;;;;;;;16.23;26.93;99268.72;4917279;29;20059;-73
2021/03/07 12:22:59;;;;;;;9.05;8.00;;;;;;;15.90;26.97;99271.50;4917262;29;20038;-73
2021/03/07 12:25:24;;;;;;;9.40;7.45;;;;;;;15.49;27.04;99265.78;4917065;29;20043;-74
2021/03/07 12:27:49;;;;;;;12.57;9.85;;;;;;;14.17;29.02;99268.50;4917033;29;20028;-75
2021/03/07 12:30:16;;;;;;;13.20;8.70;;;;;;;12.65;30.48;99267.41;4917195;29;20107;-71
2021/03/07 12:32:41;;;;;;;10.18;7.82;;;;;;;12.22;31.90;99268.16;4917028;29;20051;-71
2021/03/07 12:35:07;;;;;;;9.98;7.93;;;;;;;11.32;33.64;99272.94;4917250;29;20474;-72
2021/03/07 12:37:33;;;;;;;9.60;8.13;;;;;;;11.11;34.28;99263.69;4916961;29;20068;-73
2021/03/07 12:39:58;;;;;;;10.35;8.07;;;;;;;10.81;35.46;99262.31;4916885;29;20023;-74
2021/03/07 12:42:24;;;;;;;15.30;8.93;;;;;;;10.59;35.72;99259.09;4916915;29;20036;-77
2021/03/07 12:44:51;;;;;;;9.70;8.20;;;;;;;10.12;36.16;99267.28;4916789;29;20390;-72
2021/03/07 12:47:16;;;;;;;9.50;7.85;;;;;;;10.82;35.51;99261.44;4916698;29;20481;-73
2021/03/07 12:49:42;;;;;;;12.75;8.85;;;;;;;10.82;34.84;99251.06;4916848;29;20032;-72
2021/03/07 12:52:07;;;;;;;10.77;8.93;;;;;;;10.64;36.36;99246.97;4916538;29;20083;-72
2021/03/07 12:54:32;;;;;;;11.93;9.02;;;;;;;10.34;36.85;99247.25;4916203;29;20028;-72
2021/03/07 12:56:58;;;;;;;12.77;8.70;;;;;;;10.66;35.91;99249.53;4916548;29;20032;-72
2021/03/07 12:59:23;;;;;;;11.95;8.90;;;;;;;10.62;36.66;99242.66;4915435;29;20036;-67
2021/03/07 13:01:48;;;;;;;13.10;9.45;;;;;;;9.14;38.70;99247.22;4916439;29;20028;-72
2021/03/07 13:04:14;;;;;;;13.80;10.00;;;;;;;9.80;37.55;99239.91;4916599;29;20055;-72
2021/03/07 13:06:39;;;;;;;15.82;10.07;;;;;;;10.07;37.00;99245.75;4912049;29;20141;-66
2021/03/07 13:09:05;;;;;;;12.90;9.82;;;;;;;10.29;36.64;99234.34;4913115;29;20031;-66
2021/03/07 13:11:31;;;;;;;21.88;13.80;;;;;;;10.36;37.50;99223.06;4916356;29;20473;-72
2021/03/07 13:13:56;;;;;;;13.15;9.60;;;;;;;10.23;37.34;99224.00;4915926;29;20035;-72
2021/03/07 13:16:22;;;;;;;12.00;8.98;;;;;;;10.32;36.95;99223.09;4916381;29;20035;-67
2021/03/07 13:18:47;;;;;;;13.27;9.77;;;;;;;10.35;36.82;99208.41;4916260;29;20111;-67
2021/03/07 13:21:12;;;;;;;13.45;9.35;;;;;;;10.00;38.31;99212.13;4916091;29;20486;-67
2021/03/07 13:23:38;;;;;;;12.13;9.38;;;;;;;10.15;37.83;99205.09;4916179;29;20104;-67
2021/03/07 13:26:03;;;;;;;14.18;10.25;;;;;;;10.08;38.55;99206.03;4916200;29;20110;-66
2021/03/07 13:28:28;;;;;;;15.27;10.60;;;;;;;9.96;38.39;99194.94;4916023;29;20059;-66
2021/03/07 13:30:54;;;;;;;13.85;10.30;;;;;;;10.11;37.89;99195.66;4914681;29;20044;-72
2021/03/07 13:33:20;;;;;;;15.40;10.02;;;;;;;10.05;38.11;99194.81;4916187;29;20028;-67
2021/03/07 13:35:46;;;;;;;15.73;10.27;;;;;;;10.22;38.21;99191.22;4916040;29;20052;-67
2021/03/07 13:38:11;;;;;;;15.30;10.10;;;;;;;10.20;38.18;99191.25;4916208;29;20131;-67
2021/03/07 13:40:37;;;;;;;14.38;10.45;;;;;;;10.26;37.73;99190.38;4915981;29;20020;-67
2021/03/07 13:43:04;;;;;;;12.65;10.02;;;;;;;10.05;38.41;99181.03;4913730;29;20032;-72
2021/03/07 13:45:30;;;;;;;13.40;10.40;;;;;;;9.96;38.52;99179.41;4905002;29;20129;-72
2021/03/07 13:47:56;;;;;;;14.27;10.73;;;;;;;9.96;38.56;99181.09;4905497;29;20028;-67
2021/03/07 13:50:22;;;;;;;24.52;15.02;;;;;;;9.97;38.63;99175.94;4904171;29;20032;-72
2021/03/07 13:52:48;;;;;;;13.80;10.00;;;;;;;10.07;38.23;99168.94;4907280;29;20046;-71
2021/03/07 13:55:14;;;;;;;14.75;10.70;;;;;;;10.15;38.71;99163.66;4902182;29;20032;-72
2021/03/07 13:57:40;;;;;;;14.82;10.68;;;;;;;10.09;38.03;99155.97;4904750;29;20064;-66
2021/03/07 14:00:07;;;;;;;13.57;10.82;;;;;;;10.47;38.40;99146.09;4903964;29;20043;-72
2021/03/07 14:02:32;;;;;;;14.02;10.88;;;;;;;10.28;38.29;99150.59;4903992;29;20028;-72
2021/03/07 14:04:58;;;;;;;14.05;10.25;;;;;;;10.42;38.32;99147.88;4906266;29;20129;-72
2021/03/07 14:07:23;;;;;;;17.73;10.75;;;;;;;9.76;38.61;99139.88;4904364;29;20111;-72
2021/03/07 14:09:48;;;;;;;15.60;11.10;;;;;;;10.35;38.44;99138.47;4905309;29;20038;-72
2021/03/07 14:12:15;;;;;;;17.75;12.52;;;;;;;10.45;38.63;99134.03;4905595;29;20393;-72
2021/03/07 14:14:40;;;;;;;13.00;10.50;;;;;;;10.05;38.92;99140.44;4903950;29;21422;-72
2021/03/07 14:17:06;;;;;;;14.73;10.02;;;;;;;10.54;38.25;99131.34;4885922;29;20034;-72
2021/03/07 14:19:31;;;;;;;15.13;10.45;;;;;;;10.58;37.54;99132.13;4875670;29;20028;-73
2021/03/07 14:21:57;;;;;;;15.57;11.00;;;;;;;10.36;38.20;99131.56;4871447;29;20032;-72
2021/03/07 14:24:22;;;;;;;15.43;10.43;;;;;;;10.38;38.20;99135.81;4862976;29;20522;-72
2021/03/07 14:26:47;;;;;;;15.10;11.13;;;;;;;10.67;38.58;99132.03;4855944;29;20037;-72
2021/03/07 14:29:14;;;;;;;13.98;10.65;;;;;;;10.64;38.28;99132.09;4852070;29;20463;-72
2021/03/07 14:31:39;;;;;;;13.35;10.77;;;;;;;10.47;37.91;99130.53;4841570;29;20032;-66
2021/03/07 14:34:04;;;;;;;14.93;10.48;;;;;;;10.34;39.21;99122.94;4835306;29;20055;-65
2021/03/07 14:36:30;;;;;;;15.57;11.55;;;;;;;10.37;38.85;99115.97;4837484;29;20983;-65
2021/03/07 14:38:56;;;;;;;15.23;10.45;;;;;;;10.30;38.68;99116.94;4831660;29;20115;-66
2021/03/07 14:41:21;;;;;;;13.80;11.15;;;;;;;9.97;38.81;99125.91;4825126;29;20473;-66
2021/03/07 14:43:47;;;;;;;13.48;10.05;;;;;;;9.84;39.84;99127.72;4829646;29;20092;-66
2021/03/07 14:46:12;;;;;;;14.55;10.18;;;;;;;9.99;39.62;99122.41;4836133;29;20032;-65
2021/03/07 14:48:37;;;;;;;16.05;10.55;;;;;;;9.95;39.65;99119.84;4843918;29;20127;-71
2021/03/07 14:51:03;;;;;;;14.52;11.10;;;;;;;10.03;39.49;99110.28;4856151;29;20034;-67
2021/03/07 14:53:28;;;;;;;14.77;10.43;;;;;;;9.91;39.61;99107.81;4862052;29;21026;-71
2021/03/07 14:55:54;;;;;;;13.90;10.73;;;;;;;9.95;39.93;99105.19;4875317;29;20096;-70
2021/03/07 14:58:19;;;;;;;16.50;10.70;;;;;;;9.98;39.24;99107.75;4878319;29;22326;-72
2021/03/07 15:00:45;;;;;;;14.48;9.25;;;;;;;9.82;40.33;99102.75;4882593;29;20115;-70
2021/03/07 15:03:10;;;;;;;21.63;14.20;;;;;;;9.77;40.23;99101.06;4891971;29;20120;-71
2021/03/07 15:05:36;;;;;;;17.20;10.80;;;;;;;8.82;41.67;99100.94;4892909;29;20501;-75
2021/03/07 15:08:01;;;;;;;15.02;10.27;;;;;;;9.21;41.23;99099.81;4896946;29;20032;-70
2021/03/07 15:10:26;;;;;;;15.40;10.07;;;;;;;9.48;40.70;99088.41;4899054;29;21256;-71
2021/03/07 15:12:52;;;;;;;17.38;10.30;;;;;;;9.30;41.36;99095.44;4900735;29;20187;-74
2021/03/07 15:15:18;;;;;;;15.52;10.63;;;;;;;9.27;41.19;99094.56;4902929;29;20040;-69
2021/03/07 15:17:44;;;;;;;15.35;10.57;;;;;;;8.84;42.13;99094.00;4905560;29;20036;-70
2021/03/07 15:20:09;;;;;;;15.68;10.43;;;;;;;8.37;42.46;99092.53;4906476;29;21010;-69
2021/03/07 15:22:36;;;;;;;14.38;10.75;;;;;;;8.92;42.32;99087.06;4908221;29;20031;-67
2021/03/07 15:25:03;;;;;;;15.55;10.80;;;;;;;9.19;41.36;99080.03;4908502;29;20102;-69
2021/03/07 15:27:29;;;;;;;16.52;11.43;;;;;;;9.09;41.31;99078.34;4904996;29;20421;-71
2021/03/07 15:29:54;;;;;;;16.55;11.10;;;;;;;8.20;42.78;99082.25;4910444;29;20020;-70
2021/03/07 15:32:20;;;;;;;17.00;11.70;;;;;;;8.75;42.03;99074.28;4906310;29;20044;-70
2021/03/07 15:34:46;;;;;;;13.80;10.23;;;;;;;8.92;41.82;99071.56;4906122;29;20031;-70
2021/03/07 15:37:11;;;;;;;14.57;9.80;;;;;;;8.54;42.18;99068.34;4909253;29;20062;-72
2021/03/07 15:39:36;;;;;;;15.10;10.45;;;;;;;8.72;41.17;99063.94;4906142;29;20028;-71
2021/03/07 15:42:02;;;;;;;13.95;10.07;;;;;;;8.74;41.33;99069.09;4907298;29;20146;-68
2021/03/07 15:44:28;;;;;;;16.40;10.05;;;;;;;8.57;42.39;99063.19;4905752;29;20520;-72
2021/03/07 15:46:53;;;;;;;15.43;10.50;;;;;;;8.82;42.20;99063.91;4896450;29;20036;-66
2021/03/07 15:49:18;;;;;;;13.43;9.75;;;;;;;8.59;42.44;99057.13;4895030;29;20026;-73
2021/03/07 15:51:44;;;;;;;16.23;10.48;;;;;;;8.74;42.29;99051.88;4890495;29;20131;-73
2021/03/07 15:54:09;;;;;;;13.35;9.70;;;;;;;8.82;41.88;99059.59;4883910;29;20032;-72
2021/03/07 15:56:35;;;;;;;14.32;9.70;;;;;;;8.63;42.67;99052.81;4882176;29;20542;-77
2021/03/07 15:59:00;;;;;;;16.40;10.23;;;;;;;8.70;41.94;99050.19;4881346;29;20063;-74
2021/03/07 16:01:26;;;;;;;17.23;10.57;;;;;;;8.25;42.81;99049.53;4871945;29;20470;-72
2021/03/07 16:03:51;;;;;;;17.75;11.35;;;;;;;8.37;43.19;99046.06;4873424;29;20099;-73
2021/03/07 16:06:16;;;;;;;15.00;10.13;;;;;;;8.53;42.24;99046.00;4871915;29;20513;-76
2021/03/07 16:08:42;;;;;;;15.95;9.82;;;;;;;8.58;42.04;99044.25;4863427;29;20036;-76
2021/03/07 16:11:07;;;;;;;15.13;10.07;;;;;;;8.63;41.81;99042.47;4863022;29;20050;-77
2021/03/07 16:13:32;;;;;;;16.40;10.23;;;;;;;8.35;42.49;99037.44;4857725;29;20702;-75
2021/03/07 16:15:58;;;;;;;12.90;9.43;;;;;;;8.37;42.27;99028.00;4870582;29;20079;-75
2021/03/07 16:18:23;;;;;;;12.07;9.57;;;;;;;7.93;43.21;99034.19;4877985;29;20458;-75
2021/03/07 16:20:48;;;;;;;13.35;10.57;;;;;;;8.04;43.14;99030.69;4879666;29;20032;-75
2021/03/07 16:23:14;;;;;;;13.85;9.93;;;;;;;7.90;43.47;99030.75;4889599;29;20052;-76
2021/03/07 16:25:39;;;;;;;15.43;10.43;;;;;;;8.12;42.92;99028.91;4892613;29;20156;-75
2021/03/07 16:28:06;;;;;;;13.93;10.73;;;;;;;8.01;43.61;99022.97;4893422;29;20119;-81
2021/03/07 16:30:32;;;;;;;17.75;9.93;;;;;;;7.94;43.18;99022.13;4898492;29;20038;-73
2021/03/07 16:32:57;;;;;;;15.70;9.68;;;;;;;7.89;43.56;99026.44;4902069;29;20032;-75
2021/03/07 16:35:23;;;;;;;14.32;9.95;;;;;;;7.75;44.44;99023.91;4901087;29;20111;-75
2021/03/07 16:37:49;;;;;;;16.13;10.30;;;;;;;7.40;45.44;99031.72;4901089;29;20502;-76
2021/03/07 16:40:14;;;;;;;15.15;10.40;;;;;;;7.50;45.27;99037.72;4906385;29;20056;-75
2021/03/07 16:42:39;;;;;;;13.95;10.13;;;;;;;7.63;44.61;99018.78;4904624;29;20028;-76
2021/03/07 16:45:05;;;;;;;15.73;10.88;;;;;;;7.60;45.01;99029.09;4907906;29;20035;-76
2021/03/07 16:47:31;;;;;;;15.85;10.40;;;;;;;7.35;45.54;99034.31;4904639;29;20501;-75
2021/03/07 16:49:56;;;;;;;15.95;10.65;;;;;;;7.20;46.13;99039.44;4908661;29;20081;-70
2021/03/07 16:52:21;;;;;;;18.33;10.38;;;;;;;6.93;46.45;99041.16;4907471;29;20031;-75
2021/03/07 16:54:47;;;;;;;16.58;10.50;;;;;;;6.76;46.92;99037.69;4910754;29;20413;-75
2021/03/07 16:57:12;;;;;;;30.60;18.05;;;;;;;6.61;47.58;99042.81;4911093;29;20558;-75
2021/03/07 16:59:38;;;;;;;36.20;18.45;;;;;;;6.38;48.99;99041.06;4907362;29;20032;-75
2021/03/07 17:02:04;;;;;;;24.67;13.40;;;;;;;6.50;48.09;99034.22;4902655;29;20493;-76
2021/03/07 17:04:30;;;;;;;19.08;12.13;;;;;;;6.32;48.33;99040.19;4907684;29;20126;-79
2021/03/07 17:06:57;;;;;;;24.17;15.60;;;;;;;5.94;51.01;99038.31;4905705;29;20038;-79
2021/03/07 17:09:23;;;;;;;31.92;18.70;;;;;;;5.81;51.34;99039.94;4905138;29;20080;-80
2021/03/07 17:11:48;;;;;;;36.65;18.92;;;;;;;5.64;51.11;99041.53;4904247;29;20530;-83
2021/03/07 17:14:14;;;;;;;43.22;24.15;;;;;;;5.45;51.87;99047.41;4907744;29;20032;-83
2021/03/07 17:16:39;;;;;;;42.95;22.50;;;;;;;5.36;52.61;99049.06;4903203;29;20090;-83
2021/03/07 17:19:05;;;;;;;32.28;18.73;;;;;;;5.18;53.15;99048.94;4902954;29;20410;-83
2021/03/07 17:21:30;;;;;;;25.60;15.93;;;;;;;5.09;53.42;99054.88;4906774;29;20154;-71
2021/03/07 17:23:55;;;;;;;26.70;16.83;;;;;;;4.96;54.34;99053.03;4903860;29;20024;-71
2021/03/07 17:26:21;;;;;;;25.65;16.27;;;;;;;4.87;54.73;99053.81;4919340;29;20028;-72
2021/03/07 17:28:47;;;;;;;29.15;17.55;;;;;;;4.70;55.71;99065.63;4903720;29;20033;-77
2021/03/07 17:31:13;;;;;;;34.95;20.45;;;;;;;4.48;56.53;99063.69;4912197;29;21420;-75
2021/03/07 17:33:38;;;;;;;31.33;17.88;;;;;;;4.46;57.12;99065.38;4905706;29;20067;-72
2021/03/07 17:36:05;;;;;;;35.25;17.77;;;;;;;4.51;56.51;99068.84;4906582;29;20492;-73
2021/03/07 17:38:30;;;;;;;28.67;17.83;;;;;;;4.36;57.13;99070.41;4906881;29;20035;-79
2021/03/07 17:40:56;;;;;;;32.22;17.67;;;;;;;4.25;58.02;99071.09;4906725;29;20063;-82
2021/03/07 17:43:21;;;;;;;31.35;19.45;;;;;;;4.07;58.40;99076.88;4904806;29;20028;-72
2021/03/07 17:45:47;;;;;;;27.85;18.10;;;;;;;4.12;60.10;99080.38;4905815;29;20052;-70
2021/03/07 17:48:13;;;;;;;32.55;18.45;;;;;;;4.04;58.58;99084.53;4907626;29;20050;-70
2021/03/07 17:50:39;;;;;;;47.60;23.67;;;;;;;3.95;59.47;99098.06;4904704;29;20871;-71
2021/03/07 17:53:04;;;;;;;59.53;29.73;;;;;;;3.91;59.93;99101.44;4907164;29;20494;-70
2021/03/07 17:55:29;;;;;;;43.90;20.30;;;;;;;3.90;59.46;99099.72;4904551;29;20032;-70
2021/03/07 17:57:54;;;;;;;74.15;33.63;;;;;;;3.83;60.33;99103.91;4907204;29;20164;-76
2021/03/07 18:00:20;;;;;;;30.98;17.70;;;;;;;3.88;59.97;99103.13;4907160;29;20028;-76
2021/03/07 18:02:48;;;;;;;27.90;15.70;;;;;;;3.85;59.69;99107.34;4906184;29;20028;-76
2021/03/07 18:05:14;;;;;;;32.67;17.45;;;;;;;3.85;59.82;99112.47;4906214;29;20036;-77
2021/03/07 18:07:39;;;;;;;38.75;17.77;;;;;;;3.65;61.19;99113.88;4902451;29;20038;-76
2021/03/07 18:10:06;;;;;;;45.75;22.05;;;;;;;3.64;61.20;99114.72;4904711;29;20035;-76
2021/03/07 18:12:31;;;;;;;28.27;15.20;;;;;;;3.70;60.88;99114.81;4903927;29;20506;-76
2021/03/07 18:14:57;;;;;;;49.47;22.95;;;;;;;3.66;62.25;99115.59;4888914;29;20119;-76
2021/03/07 18:17:22;;;;;;;28.17;15.80;;;;;;;3.56;64.05;99118.88;4887016;29;20056;-76
2021/03/07 18:19:48;;;;;;;21.73;13.98;;;;;;;3.45;61.80;99118.72;4872338;29;20481;-78
2021/03/07 18:22:13;;;;;;;32.22;17.40;;;;;;;3.16;63.11;99118.22;4865237;29;20024;-76
2021/03/07 18:24:39;;;;;;;32.67;18.60;;;;;;;3.22;63.55;99122.59;4862512;29;20536;-76
2021/03/07 18:27:05;;;;;;;50.17;27.60;;;;;;;3.01;64.16;99130.75;4845816;29;20032;-76
2021/03/07 18:29:30;;;;;;;51.72;27.05;;;;;;;3.00;65.32;99131.59;4852275;29;26554;-76